Latest Weather Observations for Shepparton

IDV60801

Issued at 3:05 pm EST Friday 25 April 2014 (issued every 30 minutes, with the page automatically refreshed every 10 minutes)

About weather observations | Map of weather stations | Latest weather observations for VIC | Other Formats
Station Details ID: 081125 Name: SHEPPARTON AIRPORT Lat: -36.43 Lon: 145.39 Height: 113.9 m
Data from the previous 72 hours. | See also: Recent months at Shepparton
Date/Time
EST
Temp
°C
App
Temp
°C
Dew
Point
Rel
Hum
%
Delta-T
°C
Wind Press
QNH
hPa
Press
MSL
hPa
Rain
since 9 am
mm
Dir
 
Spd
km/h
Gust
km/h
Spd
kts
Gust
kts
25/03:00pm 19.2 14.2 4.6 38 7.1 N 20 28 11 15 1015.5 1015.4 0.0
25/02:30pm 19.7 15.6 6.4 42 6.7 NNW 17 32 9 17 1015.7 - 0.0
25/02:00pm 18.7 14.0 5.9 43 6.3 N 20 30 11 16 1015.9 - 0.0
25/01:30pm 19.2 14.6 6.7 44 6.3 N 20 35 11 19 1016.4 - 0.0
25/01:00pm 18.5 13.7 5.4 42 6.4 NNE 20 32 11 17 1017.1 - 0.0
25/12:30pm 18.0 13.4 5.6 44 6.1 NNE 19 24 10 13 1017.6 - 0.0
25/12:00pm 18.2 14.0 7.3 49 5.5 N 19 28 10 15 1017.9 1017.9 0.0
25/11:30am 17.3 13.8 8.7 57 4.5 N 17 24 9 13 1018.7 - 0.0
25/11:00am 16.7 12.7 8.4 58 4.2 NE 19 24 10 13 1018.8 - 0.0
25/10:30am 15.7 13.2 8.0 60 3.9 NNE 11 17 6 9 1019.5 - 0.0
25/10:00am 13.2 11.3 6.5 64 3.2 ENE 6 9 3 5 1020.0 - 0.0
25/09:30am 11.3 8.6 5.8 69 2.6 ESE 9 13 5 7 1020.4 - 0.0
25/09:00am 9.7 7.1 6.1 78 1.7 ESE 9 11 5 6 1020.6 1020.5 0.0
25/08:30am 7.6 5.3 5.6 87 0.9 SE 7 9 4 5 1020.7 - 0.0
25/08:00am 5.7 4.7 5.6 99 0.0 CALM 0 0 0 0 1020.8 - 0.0
25/07:30am 3.3 1.8 3.2 99 0.0 CALM 0 0 0 0 1020.6 - 0.0
25/07:00am 1.6 -0.2 1.5 99 0.0 CALM 0 0 0 0 1020.5 - 0.0
25/06:30am 1.9 0.2 1.8 99 0.0 CALM 0 0 0 0 1020.3 - 0.0
25/06:00am 2.0 0.3 1.7 98 0.1 SSW 0 0 0 0 1020.0 1019.9 0.0
25/05:30am 2.7 1.1 2.3 97 0.2 CALM 0 0 0 0 1019.9 - 0.0
25/05:00am 3.0 1.4 2.4 96 0.2 CALM 0 0 0 0 1019.7 - 0.0
25/04:30am 3.5 2.0 2.8 95 0.3 CALM 0 0 0 0 1019.6 - 0.0
25/04:00am 3.7 2.1 2.7 93 0.4 CALM 0 0 0 0 1019.6 - 0.0
25/03:30am 3.9 1.6 2.6 91 0.5 SSW 4 7 2 4 1019.4 - 0.0
25/03:00am 4.8 2.2 3.3 90 0.6 SW 6 7 3 4 1019.5 1019.4 0.0
25/02:30am 5.0 3.5 2.9 86 0.9 CALM 0 0 0 0 1019.6 - 0.0
25/02:00am 5.9 3.1 2.9 81 1.2 S 7 9 4 5 1019.6 - 0.0
25/01:30am 7.1 4.0 3.5 78 1.5 S 9 13 5 7 1019.8 - 0.0
25/01:00am 7.8 3.2 3.7 75 1.8 S 17 20 9 11 1019.7 - 0.0
25/12:30am 8.0 3.8 3.7 74 1.9 S 15 19 8 10 1019.7 - 0.0
25/12:00am 7.7 3.4 3.2 73 1.9 S 15 20 8 11 1019.9 1019.8 0.0
 
Date/Time
EST
Temp
°C
App
Temp
°C
Dew
Point
Rel
Hum
%
Delta-T
°C
Wind Press
QNH
hPa
Press
MSL
hPa
Rain
since 9 am
mm
Dir
 
Spd
km/h
Gust
km/h
Spd
kts
Gust
kts
24/11:30pm 8.3 4.4 3.2 70 2.2 S 13 17 7 9 1020.0 - 0.0
24/11:00pm 9.2 4.5 3.2 66 2.6 S 17 20 9 11 1020.1 - 0.0
24/10:30pm 8.9 4.6 3.5 69 2.3 S 15 19 8 10 1020.3 - 0.0
24/10:00pm 8.9 4.6 3.1 67 2.5 SSE 15 17 8 9 1020.3 - 0.0
24/09:30pm 9.4 4.8 3.6 67 2.5 SSE 17 19 9 10 1020.2 - 0.0
24/09:00pm 8.2 5.0 3.3 71 2.1 SSE 9 13 5 7 1020.1 1020.0 0.0
24/08:30pm 9.2 5.8 3.8 69 2.4 SSE 11 15 6 8 1019.7 - 0.0
24/08:00pm 10.1 6.7 4.0 66 2.7 SSE 11 15 6 8 1019.6 - 0.0
24/07:30pm 10.4 6.7 4.5 67 2.7 SSE 13 17 7 9 1019.3 - 0.0
24/07:00pm 10.3 6.6 4.2 66 2.7 S 13 17 7 9 1019.0 - 0.0
24/06:30pm 11.7 8.4 4.7 62 3.2 S 11 13 6 7 1018.5 - 0.0
24/06:00pm 13.1 9.5 5.0 58 3.8 S 13 17 7 9 1018.0 1018.0 0.0
24/05:30pm 14.8 10.4 4.8 51 4.7 S 17 20 9 11 1017.4 - 0.0
24/05:00pm 16.5 11.7 4.9 46 5.5 S 19 24 10 13 1017.1 - 0.0
24/04:30pm 17.4 12.4 4.7 43 6.1 S 20 28 11 15 1016.8 - 0.0
24/04:00pm 18.1 13.6 6.3 46 5.9 S 19 28 10 15 1016.6 - 0.0
24/03:30pm 18.2 13.3 6.7 47 5.8 SSE 22 32 12 17 1016.3 - 0.0
24/03:00pm 17.8 13.2 5.7 45 5.9 SSW 19 24 10 13 1016.1 1016.0 0.0
24/02:30pm 18.3 14.1 7.4 49 5.5 SSW 19 32 10 17 1016.1 - 0.0
24/02:00pm 17.0 12.7 7.9 55 4.6 S 20 26 11 14 1016.1 - 0.0
24/01:30pm 18.1 13.6 8.4 53 5.0 S 22 30 12 16 1016.2 - 0.0
24/01:00pm 17.7 13.3 8.8 56 4.6 S 22 30 12 16 1016.2 - 0.0
24/12:30pm 16.9 12.5 8.8 59 4.2 S 22 32 12 17 1016.4 - 0.0
24/12:00pm 16.8 12.9 9.5 62 3.8 S 20 30 11 16 1016.5 1016.4 0.0
24/11:30am 17.0 12.9 10.1 64 3.7 SW 22 30 12 16 1016.6 - 0.0
24/11:00am 17.7 13.7 10.3 62 4.0 W 22 28 12 15 1016.4 - 0.0
24/10:30am 16.3 13.4 9.7 65 3.5 W 15 24 8 13 1016.3 - 0.0
24/10:00am 16.1 13.7 8.6 61 3.8 WNW 11 15 6 8 1016.0 - 0.0
24/09:30am 15.1 12.7 7.2 59 3.9 WNW 9 13 5 7 1016.0 - 0.0
24/09:00am 13.4 11.6 7.8 69 2.8 NNW 7 11 4 6 1016.0 1015.9 0.2
24/08:30am 11.2 10.8 9.8 91 0.7 N 2 7 1 4 1015.9 - 0.2
24/08:00am 8.9 8.6 8.8 99 0.0 CALM 0 0 0 0 1015.5 - 0.2
24/07:30am 6.0 5.1 5.9 99 0.0 CALM 0 0 0 0 1015.1 - 0.2
24/07:00am 4.5 3.3 4.4 99 0.0 CALM 0 0 0 0 1014.7 - 0.2
24/06:30am 4.4 3.1 4.3 99 0.0 CALM 0 0 0 0 1014.4 - 0.2
24/06:00am 4.7 3.5 4.6 99 0.0 CALM 0 0 0 0 1014.2 1014.1 0.2
24/05:30am 4.9 3.7 4.8 99 0.0 CALM 0 0 0 0 1013.9 - 0.2
24/05:00am 5.8 4.8 5.7 99 0.0 CALM 0 0 0 0 1013.8 - 0.2
24/04:30am 6.1 5.2 6.0 99 0.0 CALM 0 0 0 0 1013.6 - 0.2
24/04:00am 6.2 5.3 6.1 99 0.0 CALM 0 0 0 0 1013.3 - 0.2
24/03:30am 6.2 5.3 6.1 99 0.0 CALM 0 0 0 0 1013.2 - 0.2
24/03:00am 6.5 5.7 6.4 99 0.0 CALM 0 0 0 0 1013.3 1013.2 0.2
24/02:30am 6.6 5.8 6.5 99 0.0 CALM 0 0 0 0 1013.5 - 0.2
24/02:00am 6.8 6.0 6.7 99 0.0 CALM 0 0 0 0 1013.7 - 0.2
24/01:30am 7.2 6.5 7.1 99 0.0 CALM 0 0 0 0 1013.7 - 0.2
24/01:00am 7.2 6.5 6.9 98 0.1 CALM 0 0 0 0 1013.9 - 0.2
24/12:30am 7.1 6.3 6.7 97 0.2 CALM 0 0 0 0 1014.1 - 0.2
24/12:00am 7.9 7.3 7.5 97 0.2 CALM 0 0 0 0 1014.2 1014.1 0.2
 
Date/Time
EST
Temp
°C
App
Temp
°C
Dew
Point
Rel
Hum
%
Delta-T
°C
Wind Press
QNH
hPa
Press
MSL
hPa
Rain
since 9 am
mm
Dir
 
Spd
km/h
Gust
km/h
Spd
kts
Gust
kts
23/11:30pm 8.4 7.8 7.6 95 0.4 CALM 0 0 0 0 1014.4 - 0.2
23/11:00pm 8.8 8.4 8.2 96 0.3 CALM 0 0 0 0 1014.5 - 0.2
23/10:30pm 9.3 9.0 8.5 95 0.4 CALM 0 0 0 0 1014.5 - 0.2
23/10:00pm 9.1 8.7 8.2 94 0.4 CALM 0 0 0 0 1014.6 - 0.2
23/09:30pm 9.2 8.8 8.1 93 0.5 CALM 0 0 0 0 1014.6 - 0.2
23/09:00pm 10.2 9.9 8.8 91 0.7 CALM 0 0 0 0 1014.7 1014.6 0.2
23/08:30pm 10.4 10.0 8.3 87 1.0 CALM 0 0 0 0 1014.8 - 0.2
23/08:00pm 11.3 10.9 8.2 81 1.5 CALM 0 0 0 0 1014.7 - 0.2
23/07:30pm 12.3 11.9 8.4 77 1.9 CALM 0 0 0 0 1014.6 - 0.2
23/07:00pm 12.8 12.4 8.1 73 2.3 CALM 0 0 0 0 1014.6 - 0.2
23/06:30pm 14.2 12.5 7.7 65 3.2 WNW 6 7 3 4 1014.4 - 0.2
23/06:00pm 15.4 13.3 8.4 63 3.6 W 9 11 5 6 1014.4 1014.3 0.2
23/05:30pm 16.5 14.5 8.5 59 4.1 W 9 13 5 7 1014.3 - 0.2
23/05:00pm 17.5 15.3 7.8 53 4.9 WNW 9 13 5 7 1014.1 - 0.2
23/04:30pm 18.2 15.6 7.6 50 5.4 W 11 15 6 8 1014.1 - 0.2
23/04:00pm 18.8 15.7 7.3 47 5.9 W 13 17 7 9 1014.1 - 0.2
23/03:30pm 19.3 16.4 8.0 48 5.8 WSW 13 17 7 9 1014.3 - 0.2
23/03:00pm 20.2 16.7 7.2 43 6.7 W 15 22 8 12 1014.1 1014.0 0.2
23/02:30pm 20.7 17.3 9.0 47 6.2 WSW 17 20 9 11 1014.2 - 0.2
23/02:00pm 20.7 18.9 9.6 49 6.0 W 9 19 5 10 1014.2 - 0.2
23/01:30pm 20.2 17.7 9.7 51 5.6 WSW 13 24 7 13 1014.6 - 0.2
23/01:00pm 19.2 16.5 8.8 51 5.5 SW 13 22 7 12 1014.9 - 0.2
23/12:30pm 19.3 16.6 10.3 56 4.9 W 15 24 8 13 1015.3 - 0.2
23/12:00pm 19.1 16.7 9.9 55 4.9 WSW 13 19 7 10 1015.8 1015.7 0.0
23/11:30am 18.6 17.3 11.4 63 4.0 WNW 9 15 5 8 1016.2 - 0.0
23/11:00am 18.0 17.5 12.2 69 3.2 SW 6 9 3 5 1016.4 - 0.0
23/10:30am 17.2 17.0 11.9 71 2.9 W 4 9 2 5 1016.7 - 0.0
23/10:00am 16.1 16.4 12.1 77 2.2 SW 2 7 1 4 1016.9 - 0.0
23/09:30am 14.7 14.2 12.0 84 1.5 S 6 9 3 5 1016.8 - 0.0
23/09:00am 13.5 12.9 11.7 89 1.0 S 6 9 3 5 1016.8 1016.7 0.0
23/08:30am 12.0 10.7 11.4 96 0.3 S 9 11 5 6 1016.6 - 0.0
23/08:00am 10.8 11.0 10.6 99 0.1 CALM 0 2 0 1 1016.3 - 0.0
23/07:30am 9.0 8.0 8.9 99 0.0 SSW 4 7 2 4 1016.1 - 0.0
23/07:00am 8.8 8.5 8.7 99 0.0 CALM 0 4 0 2 1015.8 - 0.0
23/06:30am 8.9 8.6 8.8 99 0.0 CALM 0 0 0 0 1015.7 - 0.0
23/06:00am 9.5 9.4 9.4 99 0.0 CALM 0 2 0 1 1015.6 1015.5 0.0
23/05:30am 9.9 9.1 9.8 99 0.1 S 4 7 2 4 1015.3 - 0.0
23/05:00am 9.7 9.6 9.6 99 0.1 CALM 0 6 0 3 1015.2 - 0.0
23/04:30am 9.8 8.1 9.7 99 0.1 S 9 11 5 6 1015.0 - 0.0
23/04:00am 9.9 9.5 9.6 98 0.2 SSW 2 6 1 3 1015.0 - 0.0
23/03:30am 10.3 9.2 10.0 98 0.2 S 6 7 3 4 1014.8 - 0.0
23/03:00am 10.2 8.8 9.6 96 0.3 S 7 11 4 6 1015.0 1014.9 0.0
23/02:30am 10.9 9.7 10.3 96 0.3 S 7 9 4 5 1015.0 - 0.0
23/02:00am 11.3 10.1 10.4 94 0.5 SSW 7 11 4 6 1015.1 - 0.0
23/01:30am 12.3 11.0 11.4 94 0.5 S 9 13 5 7 1015.3 - 0.0
23/01:00am 12.0 11.2 10.9 93 0.6 S 6 11 3 6 1015.4 - 0.0
23/12:30am 12.3 10.5 11.0 92 0.7 S 11 13 6 7 1015.4 - 0.0
23/12:00am 12.8 11.2 11.5 92 0.7 S 11 13 6 7 1015.4 1015.3 0.0
 
Date/Time
EST
Temp
°C
App
Temp
°C
Dew
Point
Rel
Hum
%
Delta-T
°C
Wind Press
QNH
hPa
Press
MSL
hPa
Rain
since 9 am
mm
Dir
 
Spd
km/h
Gust
km/h
Spd
kts
Gust
kts
22/11:30pm 12.8 11.9 11.4 91 0.7 S 7 9 4 5 1015.8 - 0.0
22/11:00pm 13.8 13.3 12.0 89 1.0 S 6 7 3 4 1016.1 - 0.0
22/10:30pm 13.9 12.8 11.9 88 1.1 S 9 11 5 6 1016.1 - 0.0
22/10:00pm 14.4 13.5 12.6 89 1.0 S 9 13 5 7 1016.0 - 0.0
22/09:30pm 14.5 13.4 13.0 91 0.8 S 11 13 6 7 1016.1 - 0.0
22/09:00pm 14.7 14.0 13.2 91 0.8 S 9 11 5 6 1015.9 1015.8 0.0
22/08:30pm 15.0 14.3 13.2 89 1.0 S 9 11 5 6 1015.8 - 0.0
22/08:00pm 15.6 15.0 13.4 87 1.2 ENE 9 15 5 8 1015.8 - 0.0
22/07:30pm 15.4 15.3 13.8 90 0.9 E 7 11 4 6 1015.4 - 0.0
22/07:00pm 15.1 14.9 13.5 90 0.9 SSE 7 9 4 5 1015.3 - 0.0
22/06:30pm 15.8 14.8 13.5 86 1.3 S 11 13 6 7 1015.2 - 0.0
22/06:00pm 15.8 15.4 13.1 84 1.5 SSE 7 9 4 5 1014.7 1014.6 0.0
22/05:30pm 16.4 15.7 13.1 81 1.8 ESE 9 11 5 6 1014.3 - 0.0
22/05:00pm 17.0 18.2 13.7 81 1.9 CALM 0 0 0 0 1014.4 - 0.0
22/04:30pm 17.6 18.8 13.7 78 2.2 CALM 0 0 0 0 1014.4 - 0.0
22/04:00pm 18.0 19.0 13.3 74 2.7 CALM 0 0 0 0 1014.5 - 0.0
22/03:30pm 18.0 16.7 12.5 70 3.1 NE 11 15 6 8 1014.4 - 0.0

Other Formats:

Comma delimited format used in spreadsheet applications
http://www.bom.gov.au/fwo/IDV60801/IDV60801.94875.axf

JavaScript Object Notation format (JSON) in row-major order
http://www.bom.gov.au/fwo/IDV60801/IDV60801.94875.json